createdAt,value
2018-02-03T00:00:31.085Z,4.80
2018-02-03T00:02:58.761Z,4.70
2018-02-03T00:05:27.104Z,4.70
2018-02-03T00:07:54.573Z,4.70
2018-02-03T00:10:22.088Z,4.80
2018-02-03T00:12:49.511Z,4.70
2018-02-03T00:15:17.740Z,4.70
2018-02-03T00:17:45.324Z,4.80
2018-02-03T00:20:12.784Z,4.70
2018-02-03T00:22:40.333Z,4.70
2018-02-03T00:25:08.006Z,4.70
2018-02-03T00:27:36.252Z,4.60
2018-02-03T00:30:03.732Z,4.60
2018-02-03T00:32:31.229Z,4.60
2018-02-03T00:34:58.670Z,4.60
2018-02-03T00:37:26.910Z,4.60
2018-02-03T00:39:54.433Z,4.60
2018-02-03T00:42:22.097Z,4.70
2018-02-03T00:44:49.608Z,4.60
2018-02-03T00:47:17.106Z,4.60
2018-02-03T00:49:44.573Z,4.60
2018-02-03T00:52:12.031Z,4.60
2018-02-03T00:54:39.520Z,4.60
2018-02-03T00:57:06.996Z,4.60
2018-02-03T00:59:35.248Z,4.60
2018-02-03T01:02:02.788Z,4.60
2018-02-03T01:04:30.386Z,4.60
2018-02-03T01:06:58.638Z,4.70
2018-02-03T01:09:26.105Z,4.60
2018-02-03T01:11:53.576Z,4.70
2018-02-03T01:14:21.896Z,4.70
2018-02-03T01:16:49.380Z,4.70
2018-02-03T01:19:16.841Z,4.70
2018-02-03T01:21:44.419Z,4.70
2018-02-03T01:24:11.966Z,4.70
2018-02-03T01:26:39.389Z,4.70
2018-02-03T01:29:06.872Z,4.70
2018-02-03T01:31:34.334Z,4.60
2018-02-03T01:34:01.805Z,4.70
2018-02-03T01:36:29.292Z,4.70
2018-02-03T01:38:57.568Z,4.70
2018-02-03T01:41:25.972Z,4.70
2018-02-03T01:43:53.444Z,4.70
2018-02-03T01:46:20.917Z,4.60
2018-02-03T01:48:48.453Z,4.60
2018-02-03T01:51:15.915Z,4.60
2018-02-03T01:53:43.384Z,4.60
2018-02-03T01:56:10.852Z,4.60
2018-02-03T01:58:38.311Z,4.60
2018-02-03T02:01:05.792Z,4.60
2018-02-03T02:03:34.520Z,4.60
2018-02-03T02:06:02.223Z,4.60
2018-02-03T02:08:29.696Z,4.60
2018-02-03T02:10:57.932Z,4.60
2018-02-03T02:13:25.406Z,4.60
2018-02-03T02:15:52.872Z,4.60
2018-02-03T02:18:20.497Z,4.60
2018-02-03T02:20:47.973Z,4.60
2018-02-03T02:23:15.446Z,4.60
2018-02-03T02:25:42.921Z,4.50
2018-02-03T02:28:11.178Z,4.60
2018-02-03T02:30:39.412Z,4.60
2018-02-03T02:33:07.565Z,4.60
2018-02-03T02:35:35.134Z,4.80
2018-02-03T02:38:02.745Z,4.80
2018-02-03T02:40:30.998Z,4.80
2018-02-03T02:42:59.193Z,4.80
2018-02-03T02:45:26.717Z,4.80
2018-02-03T02:47:54.192Z,4.80
2018-02-03T02:50:21.657Z,4.80
2018-02-03T02:52:49.211Z,4.70
2018-02-03T02:55:16.735Z,4.70
2018-02-03T02:57:44.232Z,4.70
2018-02-03T03:00:11.748Z,4.70
2018-02-03T03:02:39.296Z,4.70
2018-02-03T03:05:06.916Z,4.70
2018-02-03T03:07:34.514Z,4.70
2018-02-03T03:10:01.986Z,4.70
2018-02-03T03:12:29.642Z,4.60
2018-02-03T03:14:57.147Z,4.60
2018-02-03T03:17:24.673Z,4.60
2018-02-03T03:19:52.156Z,4.60
2018-02-03T03:22:19.624Z,4.60
2018-02-03T03:24:47.105Z,4.50
2018-02-03T03:27:15.329Z,4.50
2018-02-03T03:29:42.859Z,4.50
2018-02-03T03:32:10.326Z,4.50
2018-02-03T03:34:37.921Z,4.50
2018-02-03T03:37:05.409Z,4.40
2018-02-03T03:39:33.645Z,4.40
2018-02-03T03:42:01.100Z,4.40
2018-02-03T03:44:28.731Z,4.40
2018-02-03T03:46:56.187Z,4.40
2018-02-03T03:49:24.394Z,4.30
2018-02-03T03:51:51.865Z,4.40
2018-02-03T03:54:19.318Z,4.40
2018-02-03T03:56:46.788Z,4.40
2018-02-03T03:59:14.246Z,4.40
2018-02-03T04:01:41.722Z,4.40
2018-02-03T04:04:09.949Z,4.40
2018-02-03T04:06:38.029Z,4.40
2018-02-03T04:09:05.608Z,4.40
2018-02-03T04:11:33.080Z,4.40
2018-02-03T04:14:01.337Z,4.40
2018-02-03T04:16:28.793Z,4.40
2018-02-03T04:18:56.260Z,4.50
2018-02-03T04:21:24.488Z,4.30
2018-02-03T04:23:52.049Z,4.30
2018-02-03T04:26:19.650Z,4.30
2018-02-03T04:28:47.116Z,4.30
2018-02-03T04:31:15.345Z,4.30
2018-02-03T04:33:43.557Z,4.30
2018-02-03T04:36:11.871Z,4.30
2018-02-03T04:38:39.348Z,4.40
2018-02-03T04:41:06.828Z,4.40
2018-02-03T04:43:34.296Z,4.40
2018-02-03T04:46:01.880Z,4.50
2018-02-03T04:48:29.361Z,4.40
2018-02-03T04:50:56.832Z,4.40
2018-02-03T04:53:24.288Z,4.40
2018-02-03T04:55:51.778Z,4.40
2018-02-03T04:58:19.233Z,4.30
2018-02-03T05:00:46.761Z,4.30
2018-02-03T05:03:14.217Z,4.30
2018-02-03T05:05:41.688Z,4.40
2018-02-03T05:08:09.188Z,4.40
2018-02-03T05:10:37.430Z,4.30
2018-02-03T05:13:04.896Z,4.30
2018-02-03T05:15:32.448Z,4.30
2018-02-03T05:18:00.109Z,4.40
2018-02-03T05:20:28.025Z,4.30
2018-02-03T05:22:55.479Z,4.40
2018-02-03T05:25:22.965Z,4.40
2018-02-03T05:27:50.420Z,4.40
2018-02-03T05:30:17.920Z,4.40
2018-02-03T05:32:45.384Z,4.40
2018-02-03T05:35:13.609Z,4.30
2018-02-03T05:37:41.085Z,4.30
2018-02-03T05:40:08.540Z,4.30
2018-02-03T05:42:36.010Z,4.30
2018-02-03T05:45:03.468Z,4.20
2018-02-03T05:47:30.960Z,4.10
2018-02-03T05:49:59.197Z,4.10
2018-02-03T05:52:26.644Z,4.10
2018-02-03T05:54:54.116Z,4.10
2018-02-03T05:57:21.600Z,4.10
2018-02-03T05:59:49.844Z,4.10
2018-02-03T06:02:17.397Z,4.00
2018-02-03T06:04:44.878Z,4.00
2018-02-03T06:07:12.337Z,4.00
2018-02-03T06:09:40.577Z,3.90
2018-02-03T06:12:08.037Z,4.00
2018-02-03T06:14:36.094Z,3.90
2018-02-03T06:17:03.555Z,3.90
2018-02-03T06:19:31.021Z,3.80
2018-02-03T06:21:58.492Z,3.70
2018-02-03T06:24:26.082Z,3.70
2018-02-03T06:26:54.432Z,3.60
2018-02-03T06:29:22.065Z,3.60
2018-02-03T06:31:49.661Z,3.60
2018-02-03T06:34:17.204Z,3.60
2018-02-03T06:36:44.882Z,3.60
2018-02-03T06:39:12.407Z,3.50
2018-02-03T06:41:39.907Z,3.50
2018-02-03T06:44:08.777Z,3.50
2018-02-03T06:46:36.252Z,3.50
2018-02-03T06:49:04.510Z,3.40
2018-02-03T06:51:33.468Z,3.40
2018-02-03T06:54:01.026Z,3.40
2018-02-03T06:56:28.519Z,3.50
2018-02-03T06:58:56.181Z,3.50
2018-02-03T07:01:24.372Z,3.50
2018-02-03T07:03:52.601Z,3.70
2018-02-03T07:06:20.073Z,3.60
2018-02-03T07:08:47.565Z,3.70
2018-02-03T07:11:15.807Z,3.80
2018-02-03T07:13:43.404Z,3.80
2018-02-03T07:16:11.649Z,3.80
2018-02-03T07:18:39.110Z,3.80
2018-02-03T07:21:06.581Z,3.70
2018-02-03T07:23:34.120Z,3.80
2018-02-03T07:26:01.642Z,3.80
2018-02-03T07:28:29.138Z,3.80
2018-02-03T07:30:56.629Z,3.90
2018-02-03T07:33:24.933Z,3.70
2018-02-03T07:35:52.400Z,3.60
2018-02-03T07:38:19.860Z,3.80
2018-02-03T07:40:47.341Z,3.90
2018-02-03T07:43:14.827Z,3.90
2018-02-03T07:45:43.788Z,3.80
2018-02-03T07:48:11.258Z,3.80
2018-02-03T07:50:38.721Z,4.00
2018-02-03T07:53:06.197Z,4.00
2018-02-03T07:55:34.421Z,3.80
2018-02-03T07:58:01.907Z,3.80
2018-02-03T08:00:29.393Z,3.80
2018-02-03T08:02:56.881Z,3.80
2018-02-03T08:05:24.344Z,3.70
2018-02-03T08:07:51.821Z,3.70
2018-02-03T08:10:19.284Z,3.70
2018-02-03T08:12:46.859Z,3.80
2018-02-03T08:15:15.097Z,3.80
2018-02-03T08:17:43.176Z,3.90
2018-02-03T08:20:10.657Z,3.90
2018-02-03T08:22:38.496Z,3.90
2018-02-03T08:25:06.031Z,4.00
2018-02-03T08:27:33.508Z,4.10
2018-02-03T08:30:01.010Z,4.10
2018-02-03T08:32:29.242Z,4.00
2018-02-03T08:34:56.720Z,4.00
2018-02-03T08:37:24.189Z,4.00
2018-02-03T08:39:52.488Z,3.80
2018-02-03T08:42:19.977Z,3.80
2018-02-03T08:44:48.347Z,3.80
2018-02-03T08:47:16.019Z,3.80
2018-02-03T08:49:43.618Z,3.80
2018-02-03T08:52:11.121Z,3.90
2018-02-03T08:54:38.793Z,3.90
2018-02-03T08:57:06.418Z,3.90
2018-02-03T08:59:34.654Z,4.00
2018-02-03T09:02:02.232Z,4.00
2018-02-03T09:04:29.697Z,4.10
2018-02-03T09:06:57.937Z,4.20
2018-02-03T09:09:25.405Z,4.20
2018-02-03T09:12:04.755Z,4.30
2018-02-03T09:14:32.279Z,4.20
2018-02-03T09:16:59.904Z,4.20
2018-02-03T09:19:27.432Z,4.20
2018-02-03T09:21:55.118Z,4.20
2018-02-03T09:24:23.346Z,4.20
2018-02-03T09:26:50.824Z,4.20
2018-02-03T09:29:18.940Z,4.30
2018-02-03T09:31:46.427Z,4.30
2018-02-03T09:34:13.959Z,4.40
2018-02-03T09:36:41.616Z,4.40
2018-02-03T09:39:09.179Z,4.40
2018-02-03T09:41:36.701Z,4.40
2018-02-03T09:44:04.355Z,4.40
2018-02-03T09:46:31.930Z,4.30
2018-02-03T09:49:00.181Z,4.80
2018-02-03T09:51:28.409Z,6.00
2018-02-03T09:53:55.884Z,6.00
2018-02-03T09:56:23.368Z,7.50
2018-02-03T09:58:50.830Z,9.20
2018-02-03T10:01:19.093Z,10.30
2018-02-03T10:03:46.561Z,10.30
2018-02-03T10:06:14.792Z,8.20
2018-02-03T10:08:42.314Z,8.10
2018-02-03T10:11:10.541Z,6.80
2018-02-03T10:13:38.132Z,6.80
2018-02-03T10:16:05.598Z,6.90
2018-02-03T10:18:33.074Z,7.50
2018-02-03T10:21:00.559Z,7.50
2018-02-03T10:23:28.041Z,7.90
2018-02-03T10:25:55.500Z,8.00
2018-02-03T10:28:22.970Z,7.90
2018-02-03T10:30:51.245Z,7.60
2018-02-03T10:33:18.818Z,7.60
2018-02-03T10:35:47.169Z,6.20
2018-02-03T10:38:14.808Z,6.20
2018-02-03T10:40:42.382Z,6.00
2018-02-03T10:43:09.870Z,5.60
2018-02-03T10:45:37.339Z,5.50
2018-02-03T10:48:05.581Z,5.50
2018-02-03T10:50:33.057Z,5.50
2018-02-03T10:53:00.660Z,5.30
2018-02-03T10:55:28.164Z,5.40
2018-02-03T10:57:57.151Z,5.50
2018-02-03T11:00:25.107Z,5.60
2018-02-03T11:02:52.601Z,5.60
2018-02-03T11:05:20.973Z,5.70
2018-02-03T11:07:50.016Z,5.70
2018-02-03T11:10:17.510Z,5.60
2018-02-03T11:12:50.306Z,5.60
2018-02-03T11:15:19.526Z,5.70
2018-02-03T11:17:47.909Z,5.80
2018-02-03T11:20:16.313Z,5.80
2018-02-03T11:22:43.826Z,5.80
2018-02-03T11:25:11.289Z,5.90
2018-02-03T11:27:39.553Z,5.80
2018-02-03T11:30:07.094Z,5.80
2018-02-03T11:32:35.518Z,5.90
2018-02-03T11:35:03.017Z,5.90
2018-02-03T11:37:31.173Z,5.80
2018-02-03T11:39:58.675Z,5.80
2018-02-03T11:42:26.154Z,5.80
2018-02-03T11:44:54.403Z,6.10
2018-02-03T11:47:22.720Z,6.00
2018-02-03T11:49:50.496Z,6.10
2018-02-03T11:52:18.108Z,6.10
2018-02-03T11:54:45.736Z,6.00
2018-02-03T11:57:13.216Z,5.80
2018-02-03T11:59:40.844Z,5.80
2018-02-03T12:02:08.317Z,5.80
2018-02-03T12:04:35.782Z,5.90
2018-02-03T12:07:03.394Z,6.00
2018-02-03T12:09:30.882Z,6.00
2018-02-03T12:11:58.376Z,6.10
2018-02-03T12:14:25.854Z,6.10
2018-02-03T12:16:54.103Z,6.20
2018-02-03T12:19:21.586Z,6.10
2018-02-03T12:21:50.033Z,6.20
2018-02-03T12:24:17.505Z,6.20
2018-02-03T12:26:45.754Z,6.50
2018-02-03T12:29:13.237Z,6.50
2018-02-03T12:31:40.952Z,6.70
2018-02-03T12:34:08.554Z,6.80
2018-02-03T12:36:36.226Z,7.00
2018-02-03T12:39:03.705Z,7.00
2018-02-03T12:41:31.953Z,7.00
2018-02-03T12:43:59.646Z,7.00
2018-02-03T12:46:27.140Z,7.10
2018-02-03T12:48:54.748Z,7.20
2018-02-03T12:51:23.000Z,7.10
2018-02-03T12:53:50.479Z,7.10
2018-02-03T12:56:18.784Z,6.70
2018-02-03T12:58:46.288Z,6.70
2018-02-03T13:01:13.746Z,6.40
2018-02-03T13:03:41.217Z,6.40
2018-02-03T13:06:09.485Z,6.50
2018-02-03T13:08:36.954Z,6.40
2018-02-03T13:11:05.177Z,6.30
2018-02-03T13:13:32.802Z,6.30
2018-02-03T13:16:01.239Z,6.30
2018-02-03T13:18:28.830Z,6.30
2018-02-03T13:20:56.489Z,6.30
2018-02-03T13:23:24.729Z,6.30
2018-02-03T13:25:52.226Z,6.30
2018-02-03T13:28:20.614Z,6.20
2018-02-03T13:30:48.889Z,6.20
2018-02-03T13:33:17.115Z,6.10
2018-02-03T13:35:44.583Z,6.10
2018-02-03T13:38:12.214Z,6.10
2018-02-03T13:40:39.822Z,6.20
2018-02-03T13:43:07.297Z,6.20
2018-02-03T13:45:35.537Z,6.20
2018-02-03T13:48:02.996Z,6.20
2018-02-03T13:50:30.523Z,6.10
2018-02-03T13:52:58.370Z,6.00
2018-02-03T13:55:25.845Z,5.90
2018-02-03T13:57:53.456Z,5.90
2018-02-03T14:00:21.824Z,5.80
2018-02-03T14:02:49.573Z,5.80
2018-02-03T14:05:17.052Z,5.90
2018-02-03T14:07:44.538Z,5.90
2018-02-03T14:10:12.218Z,5.90
2018-02-03T14:12:39.712Z,5.90
2018-02-03T14:15:07.281Z,5.90
2018-02-03T14:17:34.792Z,5.80
2018-02-03T14:20:02.273Z,5.80
2018-02-03T14:22:29.745Z,5.90
2018-02-03T14:25:02.905Z,5.90
2018-02-03T14:27:30.413Z,6.00
2018-02-03T14:29:57.891Z,5.90
2018-02-03T14:32:26.404Z,6.00
2018-02-03T14:34:54.174Z,6.00
2018-02-03T14:37:21.661Z,6.00
2018-02-03T14:39:49.514Z,6.00
2018-02-03T14:42:19.984Z,6.10
2018-02-03T14:44:47.500Z,6.10
2018-02-03T14:47:15.009Z,6.00
2018-02-03T14:49:42.584Z,6.00
2018-02-03T14:52:10.051Z,6.00
2018-02-03T14:54:37.564Z,6.00
2018-02-03T14:57:05.812Z,5.90
2018-02-03T14:59:33.280Z,5.90
2018-02-03T15:02:00.757Z,5.90
2018-02-03T15:04:29.014Z,5.90
2018-02-03T15:06:56.578Z,5.90
2018-02-03T15:09:24.916Z,5.80
2018-02-03T15:11:52.528Z,5.80
2018-02-03T15:14:20.766Z,5.70
2018-02-03T15:16:48.469Z,5.70
2018-02-03T15:19:16.703Z,5.70
2018-02-03T15:21:44.309Z,5.60
2018-02-03T15:24:12.539Z,5.80
2018-02-03T15:26:40.062Z,5.80
2018-02-03T15:29:07.529Z,5.90
2018-02-03T15:31:35.138Z,5.90
2018-02-03T15:34:02.734Z,6.00
2018-02-03T15:36:30.385Z,6.10
2018-02-03T15:38:58.013Z,6.00
2018-02-03T15:41:25.481Z,6.00
2018-02-03T15:43:53.750Z,6.10
2018-02-03T15:46:21.993Z,6.00
2018-02-03T15:48:49.752Z,6.00
2018-02-03T15:51:17.206Z,6.00
2018-02-03T15:53:44.774Z,6.00
2018-02-03T15:56:12.445Z,6.00
2018-02-03T15:58:40.021Z,6.00
2018-02-03T16:01:07.453Z,6.00
2018-02-03T16:03:34.913Z,5.90
2018-02-03T16:06:02.867Z,5.90
2018-02-03T16:08:30.481Z,5.90
2018-02-03T16:10:58.028Z,5.90
2018-02-03T16:13:26.303Z,6.00
2018-02-03T16:15:54.804Z,5.80
2018-02-03T16:18:22.493Z,5.80
2018-02-03T16:20:50.247Z,5.80
2018-02-03T16:23:17.749Z,5.90
2018-02-03T16:25:46.132Z,5.90
2018-02-03T16:28:14.412Z,5.90
2018-02-03T16:30:42.683Z,5.90
2018-02-03T16:33:10.366Z,5.90
2018-02-03T16:35:38.609Z,5.90
2018-02-03T16:38:06.227Z,5.80
2018-02-03T16:40:33.709Z,5.90
2018-02-03T16:43:01.689Z,5.80
2018-02-03T16:45:29.227Z,5.80
2018-02-03T16:47:56.937Z,5.80
2018-02-03T16:50:24.565Z,5.70
2018-02-03T16:52:52.579Z,5.80
2018-02-03T16:55:20.173Z,5.70
2018-02-03T16:57:47.783Z,5.60
2018-02-03T17:00:15.428Z,5.70
2018-02-03T17:02:43.022Z,5.70
2018-02-03T17:05:11.620Z,5.70
2018-02-03T17:07:39.936Z,5.70
2018-02-03T17:10:08.488Z,5.70
2018-02-03T17:12:36.133Z,5.70
2018-02-03T17:15:04.388Z,5.70
2018-02-03T17:17:31.881Z,5.70
2018-02-03T17:20:00.180Z,5.60
2018-02-03T17:22:27.736Z,5.50
2018-02-03T17:24:55.354Z,5.60
2018-02-03T17:27:23.627Z,5.50
2018-02-03T17:29:51.867Z,5.50
2018-02-03T17:32:20.199Z,5.50
2018-02-03T17:34:48.577Z,5.50
2018-02-03T17:37:22.046Z,5.40
2018-02-03T17:39:49.728Z,5.40
2018-02-03T17:42:17.948Z,5.30
2018-02-03T17:44:45.489Z,5.30
2018-02-03T17:47:13.031Z,5.40
2018-02-03T17:49:40.740Z,5.40
2018-02-03T17:52:08.309Z,5.30
2018-02-03T17:54:35.800Z,5.30
2018-02-03T17:57:09.734Z,5.30
2018-02-03T17:59:37.204Z,5.30
2018-02-03T18:02:04.669Z,5.20
2018-02-03T18:04:32.155Z,5.20
2018-02-03T18:07:05.452Z,5.20
2018-02-03T18:09:33.032Z,5.30
2018-02-03T18:12:01.268Z,5.20
2018-02-03T18:14:28.804Z,5.20
2018-02-03T18:16:56.924Z,5.30
2018-02-03T18:19:24.602Z,5.20
2018-02-03T18:21:52.881Z,5.10
2018-02-03T18:24:20.414Z,5.10
2018-02-03T18:26:48.270Z,5.10
2018-02-03T18:29:16.095Z,5.00
2018-02-03T18:31:43.572Z,5.00
2018-02-03T18:34:11.058Z,5.00
2018-02-03T18:36:38.531Z,5.00
2018-02-03T18:39:06.063Z,4.90
2018-02-03T18:41:33.693Z,4.90
2018-02-03T18:44:01.932Z,4.90
2018-02-03T18:46:30.189Z,5.00
2018-02-03T18:48:57.691Z,4.90
2018-02-03T18:51:25.218Z,5.00
2018-02-03T18:53:53.465Z,5.00
2018-02-03T18:56:21.637Z,5.00
2018-02-03T18:58:49.143Z,4.90
2018-02-03T19:01:17.388Z,4.90
2018-02-03T19:03:45.817Z,4.90
2018-02-03T19:06:13.377Z,4.80
2018-02-03T19:08:40.893Z,4.80
2018-02-03T19:11:09.194Z,4.70
2018-02-03T19:13:36.689Z,4.70
2018-02-03T19:16:04.146Z,4.70
2018-02-03T19:18:31.693Z,4.70
2018-02-03T19:20:59.246Z,4.70
2018-02-03T19:23:26.956Z,4.70
2018-02-03T19:25:55.294Z,4.80
2018-02-03T19:28:22.866Z,4.80
2018-02-03T19:30:50.446Z,4.90
2018-02-03T19:33:18.036Z,4.90
2018-02-03T19:35:45.631Z,4.90
2018-02-03T19:38:13.198Z,5.00
2018-02-03T19:40:40.685Z,5.10
2018-02-03T19:43:08.265Z,5.10
2018-02-03T19:45:35.746Z,5.00
2018-02-03T19:48:03.224Z,4.90
2018-02-03T19:50:30.685Z,4.80
2018-02-03T19:52:58.159Z,4.80
2018-02-03T19:55:25.650Z,4.70
2018-02-03T19:57:53.869Z,4.70
2018-02-03T20:00:21.361Z,4.70
2018-02-03T20:02:49.017Z,4.70
2018-02-03T20:05:16.555Z,4.80
2018-02-03T20:07:44.217Z,4.80
2018-02-03T20:10:11.726Z,4.80
2018-02-03T20:12:39.195Z,4.80
2018-02-03T20:15:06.670Z,4.90
2018-02-03T20:17:34.151Z,5.00
2018-02-03T20:20:02.530Z,4.90
2018-02-03T20:22:29.989Z,4.90
2018-02-03T20:24:57.492Z,4.80
2018-02-03T20:27:24.992Z,4.80
2018-02-03T20:29:53.223Z,4.80
2018-02-03T20:32:21.450Z,4.70
2018-02-03T20:34:48.924Z,4.70
2018-02-03T20:37:16.422Z,4.70
2018-02-03T20:39:43.897Z,4.80
2018-02-03T20:42:11.412Z,4.70
2018-02-03T20:44:39.648Z,4.80
2018-02-03T20:47:07.153Z,4.70
2018-02-03T20:49:35.387Z,4.80
2018-02-03T20:52:02.971Z,4.80
2018-02-03T20:54:30.452Z,4.80
2018-02-03T20:56:58.694Z,4.90
2018-02-03T20:59:26.170Z,4.90
2018-02-03T21:01:54.409Z,4.90
2018-02-03T21:04:21.900Z,4.80
2018-02-03T21:06:50.128Z,4.90
2018-02-03T21:09:17.729Z,4.80
2018-02-03T21:11:45.961Z,4.90
2018-02-03T21:14:13.430Z,4.90
2018-02-03T21:16:40.897Z,5.00
2018-02-03T21:19:09.152Z,4.90
2018-02-03T21:21:36.653Z,4.90
2018-02-03T21:24:04.888Z,4.90
2018-02-03T21:26:32.372Z,4.90
2018-02-03T21:28:59.868Z,5.00
2018-02-03T21:31:27.464Z,4.90
2018-02-03T21:33:55.012Z,5.00
2018-02-03T21:36:22.540Z,4.90
2018-02-03T21:38:50.025Z,5.00
2018-02-03T21:41:17.508Z,5.00
2018-02-03T21:43:45.028Z,4.90
2018-02-03T21:46:12.729Z,4.90
2018-02-03T21:48:40.287Z,4.90
2018-02-03T21:51:07.975Z,4.90
2018-02-03T21:53:36.208Z,4.70
2018-02-03T21:56:03.693Z,4.70
2018-02-03T21:58:31.176Z,4.70
2018-02-03T22:00:59.543Z,4.70
2018-02-03T22:03:27.860Z,4.70
2018-02-03T22:05:55.577Z,4.70
2018-02-03T22:08:23.082Z,4.80
2018-02-03T22:10:50.550Z,4.90
2018-02-03T22:13:18.225Z,4.90
2018-02-03T22:15:45.700Z,4.80
2018-02-03T22:18:13.188Z,4.80
2018-02-03T22:20:41.405Z,4.70
2018-02-03T22:23:08.925Z,4.70
2018-02-03T22:25:36.558Z,4.80
2018-02-03T22:28:04.053Z,4.70
2018-02-03T22:30:31.524Z,4.80
2018-02-03T22:32:58.984Z,4.80
2018-02-03T22:35:26.482Z,4.80
2018-02-03T22:37:53.964Z,4.80
2018-02-03T22:40:22.208Z,4.90
2018-02-03T22:42:51.185Z,4.80
2018-02-03T22:45:18.685Z,4.80
2018-02-03T22:47:46.921Z,4.80
2018-02-03T22:50:14.397Z,4.80
2018-02-03T22:52:41.859Z,4.80
2018-02-03T22:55:09.335Z,4.80
2018-02-03T22:57:37.594Z,4.80
2018-02-03T23:00:05.081Z,4.80
2018-02-03T23:02:38.157Z,4.80
2018-02-03T23:05:06.394Z,4.70
2018-02-03T23:07:34.038Z,4.70
2018-02-03T23:10:01.499Z,4.70
2018-02-03T23:12:29.045Z,4.70
2018-02-03T23:14:56.622Z,4.70
2018-02-03T23:17:24.206Z,4.70
2018-02-03T23:19:51.677Z,4.70
2018-02-03T23:22:19.965Z,4.70
2018-02-03T23:24:47.430Z,4.60
2018-02-03T23:27:14.909Z,4.40
2018-02-03T23:29:42.434Z,4.40
2018-02-03T23:32:10.709Z,4.30
2018-02-03T23:34:39.293Z,4.20
2018-02-03T23:37:07.515Z,4.10
2018-02-03T23:39:35.021Z,4.00
2018-02-03T23:42:03.232Z,4.00
2018-02-03T23:44:30.724Z,4.00
2018-02-03T23:46:58.361Z,3.80
2018-02-03T23:49:25.830Z,3.70
2018-02-03T23:51:53.323Z,3.70
2018-02-03T23:54:21.564Z,3.80
2018-02-03T23:56:49.117Z,3.70
2018-02-03T23:59:16.617Z,3.70
